Time;durP1;ratioP1;P1;durP2;ratioP2;P2;SDS_P1;SDS_P2;PMS_P1;PMS_P2;Temp;Humidity;BMP_temperature;BMP_pressure;BME280_temperature;BME280_humidity;BME280_pressure;Samples;Min_cycle;Max_cycle;Signal;HPM_P1;HPM_P2
2022/05/27 00:01:50;;;;;;;4.78;0.80;;;;;;;14.15;55.38;100540.50;4993442;28;20064;-52
2022/05/27 00:04:18;;;;;;;2.72;0.70;;;;;;;14.11;55.75;100538.88;4974177;28;20090;-51
2022/05/27 00:06:46;;;;;;;6.60;1.10;;;;;;;14.09;55.51;100531.09;4974051;28;20054;-51
2022/05/27 00:09:14;;;;;;;2.45;0.70;;;;;;;14.07;55.55;100532.88;4973601;28;20081;-54
2022/05/27 00:11:42;;;;;;;3.35;0.98;;;;;;;14.05;55.81;100541.63;4973381;28;20054;-53
2022/05/27 00:16:52;;;;;;;4.50;1.20;;;;;;;13.99;56.01;100523.50;4973832;28;20054;-52
2022/05/27 00:19:22;;;;;;;4.95;0.75;;;;;;;13.99;56.13;100523.50;4973775;28;20054;-51
2022/05/27 00:21:50;;;;;;;4.90;0.80;;;;;;;13.96;56.07;100513.16;4985129;28;20601;-52
2022/05/27 00:24:18;;;;;;;3.08;0.73;;;;;;;13.96;56.47;100507.97;4994356;28;20058;-51
2022/05/27 00:26:46;;;;;;;2.97;0.70;;;;;;;13.94;56.54;100504.53;4997804;28;20065;-51
2022/05/27 00:31:56;;;;;;;3.90;1.00;;;;;;;13.91;56.92;100502.88;4992911;28;20054;-51
2022/05/27 00:34:26;;;;;;;4.60;1.15;;;;;;;13.89;56.82;100508.13;4989955;28;20058;-51
2022/05/27 00:36:53;;;;;;;2.25;0.70;;;;;;;13.87;57.23;100507.31;4993134;28;20121;-54
2022/05/27 00:39:23;;;;;;;3.42;1.08;;;;;;;13.88;57.40;100513.38;4992750;28;20058;-50
2022/05/27 00:41:53;;;;;;;4.70;1.00;;;;;;;13.86;57.85;100508.19;4992818;28;20463;-52
2022/05/27 00:44:21;;;;;;;3.78;1.00;;;;;;;13.86;58.22;100497.78;4995961;28;20050;-54
2022/05/27 00:46:59;;;;;;;2.53;0.75;;;;;;;13.84;58.16;100499.56;5016435;28;20068;-51
2022/05/27 00:49:31;;;;;;;4.38;0.75;;;;;;;13.82;58.37;100506.56;5016176;28;20049;-51
2022/05/27 00:52:05;;;;;;;3.63;0.80;;;;;;;13.82;58.53;100490.94;5016432;28;20050;-54
2022/05/27 00:54:36;;;;;;;4.50;0.73;;;;;;;13.85;58.19;100498.66;5016105;28;20485;-51
2022/05/27 00:57:10;;;;;;;2.97;0.85;;;;;;;13.87;58.55;100499.50;5016249;28;20053;-51
2022/05/27 00:59:41;;;;;;;3.30;0.88;;;;;;;13.89;58.28;100495.09;5002150;28;20054;-54
2022/05/27 01:02:11;;;;;;;2.83;0.77;;;;;;;13.92;58.20;100490.69;5000094;28;20068;-53
2022/05/27 01:04:49;;;;;;;3.28;0.85;;;;;;;13.95;58.35;100485.41;5015229;28;20050;-51
2022/05/27 01:07:15;;;;;;;3.00;0.70;;;;;;;13.96;58.41;100487.97;5015807;28;20053;-52
2022/05/27 01:09:48;;;;;;;3.88;0.68;;;;;;;13.99;58.55;100487.88;5014178;28;20046;-54
2022/05/27 01:12:32;;;;;;;4.65;0.98;;;;;;;14.03;58.46;100488.66;5014851;28;20133;-52
2022/05/27 01:15:12;;;;;;;2.55;0.82;;;;;;;14.04;58.27;100479.94;5014876;28;20046;-52
2022/05/27 01:17:48;;;;;;;2.70;0.80;;;;;;;14.07;58.36;100479.91;5014706;28;20141;-51
2022/05/27 01:20:24;;;;;;;2.20;0.70;;;;;;;14.10;58.17;100487.63;5015784;28;20050;-54
2022/05/27 01:23:34;;;;;;;6.72;0.95;;;;;;;14.12;58.27;100475.41;4976715;28;20078;-53
2022/05/27 01:26:35;;;;;;;2.58;1.00;;;;;;;14.13;58.63;100471.91;4997664;28;20054;-53
2022/05/27 01:29:38;;;;;;;4.47;1.10;;;;;;;14.12;58.50;100480.63;4995862;28;20080;-53
2022/05/27 01:32:18;;;;;;;2.55;0.60;;;;;;;14.12;58.42;100468.44;4995959;28;20062;-53
2022/05/27 01:34:59;;;;;;;2.00;0.80;;;;;;;14.11;58.54;100461.53;4995419;28;20065;-51
2022/05/27 01:37:34;;;;;;;4.07;0.90;;;;;;;14.12;58.49;100451.94;4995880;28;20050;-52
2022/05/27 01:40:06;;;;;;;;;;;;;;;14.04;58.42;100444.31;4996216;28;20086;-51
2022/05/27 01:42:44;;;;;;;6.38;0.70;;;;;;;14.10;58.29;100453.75;4995853;28;19930;-51
2022/05/27 01:45:22;;;;;;;3.13;1.00;;;;;;;14.13;58.48;100432.81;5006118;28;20054;-53
2022/05/27 01:47:58;;;;;;;3.90;1.20;;;;;;;14.16;58.39;100448.38;5015455;28;20144;-54
2022/05/27 01:50:34;;;;;;;3.58;0.90;;;;;;;14.17;58.33;100439.66;5014915;28;20434;-54
2022/05/27 01:53:11;;;;;;;2.45;0.60;;;;;;;14.16;58.20;100432.72;5014888;28;20054;-51
2022/05/27 01:55:41;;;;;;;3.20;0.60;;;;;;;14.16;58.19;100436.19;5015218;28;20112;-51
2022/05/27 01:58:16;;;;;;;3.45;0.80;;;;;;;14.18;57.99;100436.13;5015142;28;20050;-50
2022/05/27 02:00:46;;;;;;;4.80;0.80;;;;;;;14.19;58.06;100427.44;5001565;28;20069;-53
2022/05/27 02:03:20;;;;;;;5.97;0.80;;;;;;;14.21;58.07;100425.63;5007347;28;20076;-54
2022/05/27 02:05:51;;;;;;;3.27;0.80;;;;;;;14.23;58.16;100422.97;5014753;28;20466;-51
2022/05/27 02:08:21;;;;;;;2.30;0.60;;;;;;;14.24;58.08;100429.91;5014233;28;20292;-52
2022/05/27 02:10:55;;;;;;;2.83;0.50;;;;;;;14.23;58.08;100431.66;4994756;28;20069;-51
2022/05/27 02:13:29;;;;;;;3.53;0.63;;;;;;;14.23;58.31;100422.97;4994768;28;20093;-54
2022/05/27 02:16:05;;;;;;;2.88;0.57;;;;;;;14.21;58.87;100410.00;4994758;28;20050;-52
2022/05/27 02:18:52;;;;;;;1.45;0.52;;;;;;;14.22;58.78;100406.47;4994544;28;20428;-51
2022/05/27 02:21:30;;;;;;;3.50;0.63;;;;;;;14.22;58.64;100409.09;4987325;28;20129;-53
2022/05/27 02:24:01;;;;;;;2.88;0.70;;;;;;;14.23;59.02;100408.19;4975049;28;20061;-52
2022/05/27 02:26:32;;;;;;;2.45;0.50;;;;;;;14.22;58.92;100396.06;4981527;28;20050;-51
2022/05/27 02:29:03;;;;;;;1.70;0.60;;;;;;;14.17;58.84;100387.50;4975706;28;20113;-51
2022/05/27 02:31:39;;;;;;;2.03;0.63;;;;;;;14.14;58.94;100395.41;4975874;28;20063;-52
2022/05/27 02:37:06;;;;;;;2.28;0.57;;;;;;;14.06;59.39;100379.16;4975411;28;20174;-54
2022/05/27 02:39:36;;;;;;;3.00;1.05;;;;;;;14.06;59.20;100366.13;4975177;28;20483;-51
2022/05/27 02:42:19;;;;;;;5.90;0.80;;;;;;;14.05;59.25;100367.00;4974636;28;20054;-51
2022/05/27 02:44:54;;;;;;;2.20;0.47;;;;;;;14.04;59.49;100367.88;4982120;28;20136;-51
2022/05/27 02:47:29;;;;;;;2.25;0.40;;;;;;;14.03;59.54;100354.00;4994883;28;20058;-52
2022/05/27 02:50:17;;;;;;;2.30;0.50;;;;;;;14.01;59.55;100349.72;4994809;28;20047;-51
2022/05/27 02:52:58;;;;;;;2.70;0.60;;;;;;;14.00;59.77;100348.03;4994884;28;20144;-50
2022/05/27 02:55:36;;;;;;;2.45;0.57;;;;;;;14.03;59.78;100350.53;4994259;28;20587;-50
2022/05/27 02:58:04;;;;;;;1.77;0.55;;;;;;;14.02;59.51;100357.50;4994588;28;20458;-50
2022/05/27 03:00:34;;;;;;;1.52;0.32;;;;;;;14.00;59.87;100343.66;4982708;28;20051;-51
2022/05/27 03:03:04;;;;;;;2.67;0.68;;;;;;;13.95;60.17;100340.34;4985498;28;20483;-51
2022/05/27 03:05:52;;;;;;;2.95;0.68;;;;;;;13.94;59.94;100349.03;4994397;28;20460;-50
2022/05/27 03:08:28;;;;;;;1.63;0.45;;;;;;;13.94;60.25;100342.97;4993911;28;20573;-50
2022/05/27 03:11:10;;;;;;;;;;;;;;;13.89;60.52;100345.72;4994671;28;20058;-51
2022/05/27 03:13:53;;;;;;;2.72;0.40;;;;;;;13.94;60.35;100348.19;4994529;28;19937;-50
2022/05/27 03:16:29;;;;;;;1.48;0.30;;;;;;;13.94;60.40;100354.25;4994203;28;20390;-50
2022/05/27 03:19:24;;;;;;;2.03;0.50;;;;;;;13.97;60.79;100348.09;4994409;28;20113;-52
2022/05/27 03:22:14;;;;;;;2.95;0.63;;;;;;;13.95;60.82;100349.91;4982689;28;20058;-51
2022/05/27 03:25:16;;;;;;;2.15;0.65;;;;;;;13.97;61.30;100350.72;4979029;28;20061;-50
2022/05/27 03:27:52;;;;;;;1.58;0.60;;;;;;;13.98;61.28;100349.81;4954585;28;20122;-54
2022/05/27 03:30:23;;;;;;;0.65;0.30;;;;;;;13.99;61.41;100346.31;4956404;28;20054;-51
2022/05/27 03:33:00;;;;;;;1.55;0.57;;;;;;;14.00;61.67;100348.88;4964197;28;20073;-52
2022/05/27 03:35:35;;;;;;;1.45;0.47;;;;;;;14.02;61.74;100352.28;4955018;28;20367;-53
2022/05/27 03:38:12;;;;;;;2.05;0.47;;;;;;;13.99;61.86;100349.78;4955068;28;20467;-52
2022/05/27 03:40:52;;;;;;;3.25;0.55;;;;;;;14.00;61.81;100350.63;4961990;28;20043;-52
2022/05/27 03:43:28;;;;;;;1.25;0.50;;;;;;;13.97;61.99;100348.09;4974119;28;20055;-52
2022/05/27 03:46:05;;;;;;;1.05;0.40;;;;;;;13.99;62.25;100351.53;4990502;28;20116;-51
2022/05/27 03:48:35;;;;;;;2.20;0.50;;;;;;;13.97;62.45;100342.91;4994065;28;20058;-51
2022/05/27 03:51:11;;;;;;;1.95;0.38;;;;;;;13.98;62.39;100342.84;4994178;28;20050;-52
2022/05/27 03:54:10;;;;;;;2.30;0.52;;;;;;;13.97;62.54;100322.03;4993759;28;20082;-52
2022/05/27 03:56:48;;;;;;;2.92;0.50;;;;;;;13.95;62.57;100318.63;4993587;28;20065;-53
2022/05/27 03:59:25;;;;;;;1.90;0.80;;;;;;;13.95;62.87;100308.22;4992125;28;20538;-53
2022/05/27 04:01:55;;;;;;;2.38;0.82;;;;;;;13.92;63.35;100316.13;4975777;28;20147;-53
2022/05/27 04:04:26;;;;;;;1.48;0.50;;;;;;;13.92;63.03;100306.56;4993838;28;20069;-53
2022/05/27 04:06:55;;;;;;;3.17;0.63;;;;;;;13.93;63.13;100307.41;4993913;28;20081;-54
2022/05/27 04:09:27;;;;;;;1.48;0.47;;;;;;;13.93;63.19;100302.19;5000784;28;20061;-51
2022/05/27 04:11:58;;;;;;;2.60;0.73;;;;;;;13.92;63.47;100308.31;5012425;28;20060;-51
2022/05/27 04:14:24;;;;;;;3.00;0.77;;;;;;;13.92;63.47;100295.28;5012440;28;20054;-51
2022/05/27 04:17:27;;;;;;;2.45;0.43;;;;;;;13.90;63.34;100280.53;5012279;28;20088;-50
2022/05/27 04:19:40;;;;;;;6.78;0.73;;;;;;;13.86;63.33;100281.53;5011855;28;20509;-53
2022/05/27 04:22:08;;;;;;;1.75;0.30;;;;;;;13.85;63.31;100282.44;5001957;28;20054;-52
2022/05/27 04:24:44;;;;;;;3.55;0.60;;;;;;;13.85;63.71;100284.19;4999644;28;20060;-53
2022/05/27 04:27:20;;;;;;;1.80;0.50;;;;;;;13.85;63.50;100282.44;4997270;28;20141;-53
2022/05/27 04:29:57;;;;;;;1.58;0.40;;;;;;;13.83;63.30;100273.81;4995621;28;20057;-52
2022/05/27 04:32:28;;;;;;;2.17;0.60;;;;;;;13.86;63.67;100281.53;4981875;28;20405;-54
2022/05/27 04:34:57;;;;;;;1.55;0.40;;;;;;;13.86;63.89;100273.72;4976400;28;20054;-53
2022/05/27 04:37:25;;;;;;;2.00;0.30;;;;;;;13.87;63.90;100275.41;4976516;28;20080;-50
2022/05/27 04:40:01;;;;;;;3.22;0.47;;;;;;;13.87;64.29;100267.59;4976418;28;20047;-50
2022/05/27 04:42:28;;;;;;;1.92;0.60;;;;;;;13.84;64.82;100259.88;4976493;28;20134;-50
2022/05/27 04:44:59;;;;;;;1.60;0.40;;;;;;;13.84;65.23;100246.84;4992562;28;20058;-51
2022/05/27 04:47:29;;;;;;;1.80;0.50;;;;;;;13.87;65.16;100243.31;5015809;28;20257;-51
2022/05/27 04:49:58;;;;;;;1.98;0.70;;;;;;;13.90;65.34;100241.47;5015566;28;20089;-54
2022/05/27 04:52:29;;;;;;;2.10;0.80;;;;;;;13.93;65.24;100250.09;5015409;28;20136;-54
2022/05/27 04:55:09;;;;;;;2.20;0.57;;;;;;;13.93;65.34;100250.09;5015435;28;20046;-53
2022/05/27 04:57:40;;;;;;;2.53;0.45;;;;;;;13.94;65.47;100249.19;5015389;28;20104;-52
2022/05/27 05:00:11;;;;;;;2.78;0.55;;;;;;;13.95;65.56;100245.69;5006448;28;20054;-53
2022/05/27 05:02:42;;;;;;;6.65;0.85;;;;;;;13.95;65.40;100235.25;5003183;28;20141;-53
2022/05/27 05:05:10;;;;;;;4.25;0.88;;;;;;;13.92;65.61;100240.56;5015236;28;20076;-51
2022/05/27 05:07:41;;;;;;;4.03;0.70;;;;;;;13.91;65.78;100239.69;5015218;28;20065;-51
2022/05/27 05:10:15;;;;;;;4.28;0.65;;;;;;;13.91;65.78;100218.84;4974932;28;1153021;-50
2022/05/27 05:12:43;;;;;;;2.65;0.57;;;;;;;13.92;65.87;100230.13;5016466;28;20087;-51
2022/05/27 05:15:19;;;;;;;2.67;0.68;;;;;;;13.94;65.93;100229.19;5015852;28;20136;-54
2022/05/27 05:17:47;;;;;;;2.92;1.27;;;;;;;13.98;65.49;100246.44;5016289;28;20058;-54
2022/05/27 05:20:22;;;;;;;5.15;0.82;;;;;;;14.02;65.59;100237.63;5016018;28;20077;-51
2022/05/27 05:22:57;;;;;;;3.10;0.90;;;;;;;14.01;65.87;100224.63;4996802;28;20060;-53
2022/05/27 05:25:37;;;;;;;2.88;0.63;;;;;;;14.01;66.16;100211.63;4996329;28;20046;-52
2022/05/27 05:28:07;;;;;;;3.45;0.88;;;;;;;14.00;66.32;100196.88;4996341;28;20064;-50
2022/05/27 05:30:36;;;;;;;2.78;0.80;;;;;;;14.02;66.72;100190.72;4995999;28;20039;-51
2022/05/27 05:33:04;;;;;;;2.95;1.20;;;;;;;14.01;66.94;100182.94;4995927;28;20056;-53
2022/05/27 05:35:34;;;;;;;2.83;1.00;;;;;;;14.03;67.40;100183.75;4995584;28;20058;-54
2022/05/27 05:38:06;;;;;;;2.58;1.10;;;;;;;14.06;67.70;100178.47;4995989;28;20579;-50
2022/05/27 05:40:37;;;;;;;2.42;1.00;;;;;;;14.10;67.74;100187.91;4995973;28;20695;-53
2022/05/27 05:43:07;;;;;;;2.58;0.70;;;;;;;14.09;67.83;100175.78;4976120;28;20070;-51
2022/05/27 05:45:36;;;;;;;3.13;1.00;;;;;;;14.10;67.81;100172.25;4998713;28;20050;-54
2022/05/27 05:48:06;;;;;;;1.77;0.80;;;;;;;14.12;68.13;100170.47;4994688;28;20084;-54
2022/05/27 05:50:36;;;;;;;0.88;0.60;;;;;;;14.14;68.06;100168.66;4995914;28;20050;-54
2022/05/27 05:53:04;;;;;;;3.28;0.88;;;;;;;14.20;68.21;100163.25;4995821;28;20062;-54
2022/05/27 05:55:35;;;;;;;4.65;0.90;;;;;;;14.23;68.06;100163.16;4995803;28;20085;-56
2022/05/27 05:58:13;;;;;;;2.85;0.73;;;;;;;14.30;68.08;100156.81;4996038;28;20051;-52
2022/05/27 06:00:43;;;;;;;3.72;0.60;;;;;;;14.37;68.01;100150.50;4995724;28;20133;-56
2022/05/27 06:03:14;;;;;;;2.17;0.70;;;;;;;14.45;67.58;100143.31;5007191;28;20514;-55
2022/05/27 06:05:47;;;;;;;3.63;0.70;;;;;;;14.53;67.21;100128.25;5015249;28;20050;-56
2022/05/27 06:08:15;;;;;;;3.00;0.65;;;;;;;14.67;66.97;100121.72;5015203;28;20108;-52
2022/05/27 06:10:45;;;;;;;2.30;0.55;;;;;;;14.77;66.71;100107.47;5014134;28;20064;-52
2022/05/27 06:13:16;;;;;;;3.58;0.60;;;;;;;14.86;66.25;100101.91;5015175;28;20111;-52
2022/05/27 06:15:45;;;;;;;2.20;0.60;;;;;;;15.07;65.55;100101.13;5015063;28;20060;-53
2022/05/27 06:18:15;;;;;;;4.60;0.70;;;;;;;15.30;65.42;100107.28;5014977;28;20053;-53
2022/05/27 06:20:45;;;;;;;1.70;0.70;;;;;;;15.46;64.78;100114.47;5012160;28;20052;-55
2022/05/27 06:23:13;;;;;;;1.98;0.50;;;;;;;15.52;64.15;100129.03;4995436;28;20054;-55
2022/05/27 06:25:42;;;;;;;1.08;0.30;;;;;;;15.55;64.08;100123.69;5001500;28;20053;-54
2022/05/27 06:36:33;;;;;;;0.43;0.40;;;;;;;15.59;63.52;100109.63;4999524;28;20580;-52
2022/05/27 06:38:59;;;;;;;2.58;0.40;;;;;;;15.66;62.84;100100.69;4984114;28;20078;-53
2022/05/27 06:41:27;;;;;;;3.95;0.75;;;;;;;15.81;62.31;100093.16;4993806;28;20058;-54
2022/05/27 06:44:10;;;;;;;4.68;0.82;;;;;;;16.04;61.86;100085.22;4994227;28;20046;-53
2022/05/27 06:46:39;;;;;;;1.30;0.60;;;;;;;16.29;61.06;100079.84;5008345;28;20116;-53
2022/05/27 06:49:09;;;;;;;1.20;0.80;;;;;;;16.60;60.46;100068.91;4994038;28;20133;-53
2022/05/27 06:51:40;;;;;;;5.15;0.70;;;;;;;16.80;59.72;100055.84;4993543;28;20058;-56
2022/05/27 06:54:09;;;;;;;2.40;0.90;;;;;;;17.02;59.46;100067.03;4993859;28;20065;-54
2022/05/27 06:56:38;;;;;;;10.77;2.05;;;;;;;17.15;59.08;100063.84;5002830;28;20062;-53
2022/05/27 06:59:18;;;;;;;1.80;0.60;;;;;;;17.25;58.40;100057.31;4993967;28;20061;-54
2022/05/27 07:01:46;;;;;;;2.78;0.68;;;;;;;17.29;58.07;100051.00;4994157;28;20042;-56
2022/05/27 07:04:13;;;;;;;4.07;0.50;;;;;;;17.36;57.37;100044.53;5003705;28;20052;-54
2022/05/27 07:06:44;;;;;;;2.13;0.40;;;;;;;17.34;57.43;100051.63;5007432;28;20054;-55
2022/05/27 07:09:16;;;;;;;1.98;0.40;;;;;;;17.50;57.01;100043.88;4993626;28;20506;-55
2022/05/27 07:11:48;;;;;;;2.25;0.50;;;;;;;17.70;56.42;100038.59;4993918;28;20506;-55
2022/05/27 07:14:24;;;;;;;3.85;1.00;;;;;;;17.88;55.28;100026.34;4994140;28;20120;-53
2022/05/27 07:17:03;;;;;;;1.15;0.30;;;;;;;18.03;55.07;100038.69;4993655;28;20418;-55
2022/05/27 07:19:31;;;;;;;1.90;0.40;;;;;;;18.11;54.44;100026.03;4993647;28;20386;-55
2022/05/27 07:22:02;;;;;;;0.55;0.40;;;;;;;18.20;54.23;100030.81;4992971;28;20481;-53
2022/05/27 07:24:32;;;;;;;0.90;0.20;;;;;;;18.16;54.27;100026.66;4996636;28;20060;-54
2022/05/27 07:27:10;;;;;;;1.15;0.20;;;;;;;18.08;54.16;100013.09;4999501;28;20050;-51
2022/05/27 07:29:55;;;;;;;0.75;0.30;;;;;;;17.93;55.53;100008.63;5001890;28;20478;-50
2022/05/27 07:32:23;;;;;;;2.35;0.38;;;;;;;17.80;56.06;100028.50;4999616;28;20065;-52
2022/05/27 07:34:53;;;;;;;1.30;0.50;;;;;;;17.69;56.86;100039.50;5002970;28;20152;-53
2022/05/27 07:37:23;;;;;;;0.65;0.30;;;;;;;17.62;57.54;100031.03;4993550;28;20093;-52
2022/05/27 07:39:53;;;;;;;1.40;0.40;;;;;;;17.66;57.73;100035.25;4993847;28;20061;-52
2022/05/27 07:42:20;;;;;;;1.23;0.55;;;;;;;17.78;57.45;100038.22;4977018;28;20051;-55
2022/05/27 07:44:53;;;;;;;2.22;0.60;;;;;;;17.92;56.75;100030.50;4993149;28;20054;-53
2022/05/27 07:47:24;;;;;;;1.20;0.60;;;;;;;17.97;56.46;100025.88;4993132;28;20046;-52
2022/05/27 07:49:52;;;;;;;2.70;0.47;;;;;;;18.20;55.67;100022.94;4993527;28;20145;-55
2022/05/27 07:52:20;;;;;;;1.98;0.50;;;;;;;18.47;55.11;100025.09;4993137;28;20053;-56
2022/05/27 07:54:56;;;;;;;2.88;0.70;;;;;;;18.68;54.61;100031.03;4993274;28;20073;-55
2022/05/27 07:57:26;;;;;;;3.83;0.75;;;;;;;18.97;53.84;100037.38;4993290;28;20049;-52
2022/05/27 08:00:06;;;;;;;13.13;1.20;;;;;;;19.11;53.55;100050.59;4986839;28;20050;-53
2022/05/27 08:02:35;;;;;;;2.50;0.85;;;;;;;18.97;55.22;100082.00;4980344;28;20053;-53
2022/05/27 08:05:02;;;;;;;1.38;0.50;;;;;;;18.68;55.32;100047.63;4993173;28;20050;-55
2022/05/27 08:07:39;;;;;;;0.75;0.47;;;;;;;18.39;54.85;100048.25;5000853;28;20412;-54
2022/05/27 08:10:07;;;;;;;3.55;0.60;;;;;;;18.22;54.86;100057.84;5000600;28;20054;-53
2022/05/27 08:12:35;;;;;;;1.95;0.90;;;;;;;18.21;53.89;100039.56;5003642;28;20053;-55
2022/05/27 08:15:17;;;;;;;3.97;0.88;;;;;;;18.37;52.54;100037.00;4995637;28;20077;-54
2022/05/27 08:17:44;;;;;;;3.60;0.60;;;;;;;18.59;52.76;100045.44;4996432;28;20090;-52
2022/05/27 08:20:21;;;;;;;1.90;0.70;;;;;;;18.88;52.38;100029.06;4992771;28;20054;-52
2022/05/27 08:22:53;;;;;;;3.10;0.80;;;;;;;19.12;51.94;100026.88;4992438;28;20133;-53
2022/05/27 08:25:36;;;;;;;1.45;0.77;;;;;;;19.46;51.44;100033.75;4998672;28;20475;-52
2022/05/27 08:28:05;;;;;;;4.85;0.88;;;;;;;19.82;50.40;100024.75;4995020;28;20058;-54
2022/05/27 08:30:42;;;;;;;6.07;0.98;;;;;;;20.10;49.59;100030.09;4992329;28;20464;-53
2022/05/27 08:33:10;;;;;;;2.35;0.90;;;;;;;20.32;48.71;100018.31;4999506;28;20451;-51
2022/05/27 08:38:27;;;;;;;4.00;1.30;;;;;;;20.60;48.32;100013.09;4976730;28;20077;-51
2022/05/27 08:41:24;;;;;;;4.95;0.82;;;;;;;20.46;46.41;100024.47;4992530;28;20097;-55
2022/05/27 08:44:18;;;;;;;3.42;0.80;;;;;;;20.03;44.87;100044.53;4992260;28;20164;-52
2022/05/27 08:47:05;;;;;;;4.70;1.02;;;;;;;19.50;44.85;100024.75;4979921;28;20073;-52
2022/05/27 08:49:35;;;;;;;2.53;0.85;;;;;;;19.47;46.41;100045.97;4992629;28;20057;-52
2022/05/27 08:52:09;;;;;;;4.05;1.00;;;;;;;19.43;46.51;100049.69;4992455;28;20058;-51
2022/05/27 08:54:40;;;;;;;2.58;0.85;;;;;;;19.43;46.87;100041.81;4992848;28;20057;-51
2022/05/27 08:59:59;;;;;;;5.25;0.80;;;;;;;19.48;46.58;100041.53;4995422;28;20053;-55
2022/05/27 09:03:00;;;;;;;2.47;0.80;;;;;;;19.67;45.62;100044.00;4980348;28;20475;-55
2022/05/27 09:05:37;;;;;;;8.90;1.27;;;;;;;19.70;45.35;100056.97;4992477;28;20081;-52
2022/05/27 09:08:09;;;;;;;4.95;1.27;;;;;;;19.81;45.70;100033.59;4995846;28;20050;-55
2022/05/27 09:10:58;;;;;;;4.10;0.80;;;;;;;19.98;45.15;100019.44;4995206;28;20062;-51
2022/05/27 09:13:34;;;;;;;6.53;1.27;;;;;;;20.10;43.52;100029.25;4994636;28;20050;-51
2022/05/27 09:16:16;;;;;;;3.85;0.90;;;;;;;20.20;42.53;100040.06;4991995;28;20101;-52
2022/05/27 09:21:51;;;;;;;2.80;0.80;;;;;;;20.36;43.02;100035.63;4994433;28;20110;-53
2022/05/27 09:24:38;;;;;;;6.93;1.52;;;;;;;20.37;41.68;100042.56;4996579;28;20081;-53
2022/05/27 09:27:09;;;;;;;6.65;1.10;;;;;;;20.44;42.15;100033.41;4990723;28;20464;-55
2022/05/27 09:29:55;;;;;;;5.43;1.08;;;;;;;20.51;41.43;100029.47;4989727;28;20065;-52
2022/05/27 09:32:30;;;;;;;3.03;0.60;;;;;;;20.55;42.07;100035.38;4979224;28;20458;-51
2022/05/27 09:35:04;;;;;;;11.77;1.25;;;;;;;20.58;41.82;100057.09;4995642;28;20090;-51
2022/05/27 09:37:36;;;;;;;16.98;1.73;;;;;;;20.52;40.61;100046.94;4995250;28;20053;-54
2022/05/27 09:40:08;;;;;;;5.63;0.80;;;;;;;20.42;40.98;100053.72;4995062;28;20061;-55
2022/05/27 09:42:43;;;;;;;8.07;1.23;;;;;;;20.45;39.76;100057.00;4992895;28;20042;-52
2022/05/27 09:45:11;;;;;;;7.10;1.00;;;;;;;20.53;39.18;100047.78;5005916;28;20081;-54
2022/05/27 09:47:40;;;;;;;6.35;1.23;;;;;;;20.64;38.36;100033.03;5003757;28;20058;-54
2022/05/27 09:50:26;;;;;;;12.65;1.52;;;;;;;20.71;36.37;100041.41;4995976;28;20376;-54
2022/05/27 09:52:57;;;;;;;19.55;2.20;;;;;;;20.75;37.72;100054.28;4994804;28;20057;-53
2022/05/27 09:55:27;;;;;;;24.38;1.73;;;;;;;20.74;36.92;100021.00;4994900;28;20137;-53
2022/05/27 09:57:56;;;;;;;11.88;1.70;;;;;;;20.78;37.65;100054.09;4995064;28;20456;-51
2022/05/27 10:00:43;;;;;;;9.65;1.30;;;;;;;20.80;36.29;100054.00;4986718;28;20054;-54
2022/05/27 10:03:28;;;;;;;10.20;1.45;;;;;;;20.80;36.24;100039.06;4998247;28;20449;-52
2022/05/27 10:06:00;;;;;;;5.32;1.00;;;;;;;20.66;36.78;100054.00;5004705;28;20133;-52
2022/05/27 10:08:33;;;;;;;4.07;0.98;;;;;;;20.51;37.24;100060.22;5002674;28;20050;-54
2022/05/27 10:11:08;;;;;;;5.93;1.08;;;;;;;20.42;37.18;100078.25;5000567;28;20066;-53
2022/05/27 10:13:35;;;;;;;10.32;1.65;;;;;;;20.41;37.64;100086.25;5002608;28;20046;-56
2022/05/27 10:16:05;;;;;;;5.75;1.17;;;;;;;20.37;37.45;100084.69;4996310;28;20046;-55
2022/05/27 10:18:31;;;;;;;48.50;2.70;;;;;;;20.35;36.90;100091.84;4993097;28;20054;-56
2022/05/27 10:21:01;;;;;;;9.45;1.42;;;;;;;20.35;36.19;100097.09;4994764;28;20054;-55
2022/05/27 10:23:30;;;;;;;17.25;1.58;;;;;;;20.27;36.36;100094.03;4994737;28;20139;-52
2022/05/27 10:25:57;;;;;;;9.20;1.35;;;;;;;20.24;36.01;100083.69;5000365;28;20065;-54
2022/05/27 10:28:29;;;;;;;7.82;1.23;;;;;;;20.30;35.99;100093.88;4994752;28;20053;-52
2022/05/27 10:30:57;;;;;;;11.48;1.17;;;;;;;20.32;35.70;100103.38;4996914;28;20061;-52
2022/05/27 10:33:36;;;;;;;16.88;1.52;;;;;;;20.36;35.91;100096.16;4994631;28;20078;-53
2022/05/27 10:36:24;;;;;;;11.82;1.35;;;;;;;20.30;35.32;100088.63;4994227;28;20043;-53
2022/05/27 10:39:01;;;;;;;6.38;0.80;;;;;;;20.13;36.15;100072.00;4994370;28;20053;-51
2022/05/27 10:41:40;;;;;;;7.25;0.80;;;;;;;20.09;36.52;100091.53;4994362;28;20077;-53
2022/05/27 10:44:15;;;;;;;6.00;0.80;;;;;;;20.14;36.90;100105.28;5008772;28;20064;-52
2022/05/27 10:46:49;;;;;;;7.80;1.40;;;;;;;19.98;36.76;100104.47;5007174;28;20490;-52
2022/05/27 10:49:37;;;;;;;6.18;0.90;;;;;;;19.88;36.69;100108.56;4994382;28;20050;-54
2022/05/27 10:52:17;;;;;;;14.82;1.15;;;;;;;19.82;37.03;100114.16;4990161;28;20046;-51
2022/05/27 10:55:00;;;;;;;5.43;0.80;;;;;;;19.74;37.33;100095.31;4989590;28;20050;-52
2022/05/27 11:03:57;;;;;;;8.73;1.30;;;;;;;19.46;37.90;100096.84;5001181;28;20069;-55
2022/05/27 11:06:39;;;;;;;9.07;1.13;;;;;;;19.39;37.60;100100.72;4995886;28;20070;-53
2022/05/27 11:09:33;;;;;;;11.65;1.27;;;;;;;19.19;37.00;100099.16;4997172;28;20048;-53
2022/05/27 11:12:16;;;;;;;9.68;0.93;;;;;;;19.18;37.27;100097.47;4994838;28;20664;-53
2022/05/27 11:15:10;;;;;;;28.30;1.65;;;;;;;19.35;36.46;100122.84;4993318;28;20080;-54
2022/05/27 11:17:49;;;;;;;45.58;3.53;;;;;;;19.36;34.76;100110.56;4996741;28;20057;-51
2022/05/27 11:20:33;;;;;;;11.57;1.48;;;;;;;19.49;35.82;100122.94;4996224;28;20496;-54
2022/05/27 11:23:09;;;;;;;11.65;1.30;;;;;;;19.56;36.00;100106.88;4982558;28;20527;-53
2022/05/27 11:26:07;;;;;;;17.30;1.83;;;;;;;19.66;35.68;100121.19;4999534;28;20058;-53
2022/05/27 11:29:03;;;;;;;3.88;0.98;;;;;;;19.62;36.38;100122.31;4978986;28;20069;-51
2022/05/27 11:31:42;;;;;;;3.65;0.93;;;;;;;19.45;36.25;100110.06;4993639;28;20054;-54
2022/05/27 11:34:20;;;;;;;3.08;0.60;;;;;;;19.31;36.80;100118.69;5005084;28;20049;-52
2022/05/27 11:37:01;;;;;;;5.78;0.90;;;;;;;19.11;37.08;100137.28;4993632;28;20058;-53
2022/05/27 11:39:52;;;;;;;5.57;0.88;;;;;;;18.89;37.38;100127.91;4993585;28;20120;-54
2022/05/27 11:42:48;;;;;;;9.40;0.98;;;;;;;18.84;37.69;100127.31;4993633;28;20054;-51
2022/05/27 11:45:21;;;;;;;3.97;0.85;;;;;;;18.90;38.07;100155.88;4993490;28;20053;-52
2022/05/27 11:48:01;;;;;;;9.45;1.52;;;;;;;18.91;37.65;100136.56;4993057;28;20054;-50
2022/05/27 11:50:48;;;;;;;16.15;2.05;;;;;;;18.94;37.09;100138.19;4983697;28;20054;-50
2022/05/27 11:53:28;;;;;;;12.95;1.45;;;;;;;18.99;37.45;100124.81;4993538;28;20057;-50
2022/05/27 11:56:05;;;;;;;7.18;0.90;;;;;;;19.09;37.13;100128.63;4993434;28;20062;-50
2022/05/27 11:58:52;;;;;;;5.38;0.88;;;;;;;19.15;37.18;100138.81;4992709;28;20474;-49
2022/05/27 12:01:27;;;;;;;6.20;0.90;;;;;;;19.21;37.74;100143.75;4993156;28;20062;-51
2022/05/27 12:04:00;;;;;;;7.00;0.85;;;;;;;19.21;37.26;100143.75;4992835;28;20133;-49
2022/05/27 12:06:33;;;;;;;9.05;1.27;;;;;;;19.13;37.53;100159.06;4993542;28;20069;-50
2022/05/27 12:09:06;;;;;;;6.97;0.95;;;;;;;19.09;37.61;100154.91;4992731;28;20698;-49
2022/05/27 12:11:41;;;;;;;4.28;0.50;;;;;;;19.08;38.02;100158.47;4993242;28;20054;-51
2022/05/27 12:14:20;;;;;;;12.02;0.90;;;;;;;19.03;36.86;100147.34;4993009;28;20050;-52
2022/05/27 12:16:51;;;;;;;4.43;0.75;;;;;;;18.81;37.19;100156.34;4993114;28;20082;-50
2022/05/27 12:19:24;;;;;;;2.00;0.70;;;;;;;18.64;36.99;100176.50;4992888;28;20054;-52
2022/05/27 12:21:59;;;;;;;6.97;1.23;;;;;;;18.52;37.33;100154.31;4993173;28;20463;-53
2022/05/27 12:24:31;;;;;;;4.93;0.63;;;;;;;18.40;36.46;100141.81;4979596;28;20074;-51
2022/05/27 12:26:59;;;;;;;4.80;0.98;;;;;;;18.38;37.04;100147.13;4996026;28;20058;-50
2022/05/27 12:29:30;;;;;;;4.30;1.13;;;;;;;18.32;37.03;100162.31;4992597;28;20050;-50
2022/05/27 12:31:58;;;;;;;8.57;0.80;;;;;;;18.37;37.19;100139.31;4992700;28;20074;-50